sensor_id;sensor_type;location;lat;lon;timestamp;pressure;altitude;pressure_sealevel;temperature;humidity
40918;BME280;26644;50.248;19.032;2024-01-10T00:01:40;99753.53;;;-13.04;61.35
40918;BME280;26644;50.248;19.032;2024-01-10T00:04:45;99750.53;;;-13.12;61.61
40918;BME280;26644;50.248;19.032;2024-01-10T00:07:50;99761.69;;;-13.21;61.71
40918;BME280;26644;50.248;19.032;2024-01-10T00:10:55;99750.44;;;-13.25;62.10
40918;BME280;26644;50.248;19.032;2024-01-10T00:14:04;99745.53;;;-13.31;62.11
40918;BME280;26644;50.248;19.032;2024-01-10T00:17:10;99747.72;;;-13.38;62.34
40918;BME280;26644;50.248;19.032;2024-01-10T00:20:15;99749.72;;;-13.41;62.49
40918;BME280;26644;50.248;19.032;2024-01-10T00:23:20;99744.44;;;-13.41;62.45
40918;BME280;26644;50.248;19.032;2024-01-10T00:26:25;99745.09;;;-13.38;62.85
40918;BME280;26644;50.248;19.032;2024-01-10T00:29:32;99752.91;;;-13.36;62.54
40918;BME280;26644;50.248;19.032;2024-01-10T00:32:37;99744.69;;;-13.32;62.68
40918;BME280;26644;50.248;19.032;2024-01-10T00:35:42;99750.66;;;-13.28;63.00
40918;BME280;26644;50.248;19.032;2024-01-10T00:38:48;99758.28;;;-13.23;63.19
40918;BME280;26644;50.248;19.032;2024-01-10T00:41:52;99746.28;;;-13.29;63.40
40918;BME280;26644;50.248;19.032;2024-01-10T00:45:00;99747.03;;;-13.27;63.62
40918;BME280;26644;50.248;19.032;2024-01-10T00:48:05;99765.16;;;-13.21;62.35
40918;BME280;26644;50.248;19.032;2024-01-10T00:51:10;99760.66;;;-13.19;62.67
40918;BME280;26644;50.248;19.032;2024-01-10T00:54:15;99756.66;;;-13.11;62.58
40918;BME280;26644;50.248;19.032;2024-01-10T00:57:20;99759.09;;;-13.08;61.73
40918;BME280;26644;50.248;19.032;2024-01-10T01:00:27;99757.34;;;-13.08;61.80
40918;BME280;26644;50.248;19.032;2024-01-10T01:03:32;99749.50;;;-13.09;61.68
40918;BME280;26644;50.248;19.032;2024-01-10T01:06:37;99759.22;;;-13.10;62.66
40918;BME280;26644;50.248;19.032;2024-01-10T01:09:42;99770.44;;;-13.06;62.53
40918;BME280;26644;50.248;19.032;2024-01-10T01:12:47;99773.84;;;-13.04;62.99
40918;BME280;26644;50.248;19.032;2024-01-10T01:15:55;99759.69;;;-13.03;62.92
40918;BME280;26644;50.248;19.032;2024-01-10T01:18:59;99759.50;;;-13.00;62.70
40918;BME280;26644;50.248;19.032;2024-01-10T01:22:04;99759.69;;;-13.03;62.26
40918;BME280;26644;50.248;19.032;2024-01-10T01:25:09;99751.94;;;-13.06;62.84
40918;BME280;26644;50.248;19.032;2024-01-10T01:28:14;99748.53;;;-13.08;62.61
40918;BME280;26644;50.248;19.032;2024-01-10T01:31:21;99756.56;;;-13.10;62.87
40918;BME280;26644;50.248;19.032;2024-01-10T01:34:27;99759.09;;;-13.08;63.13
40918;BME280;26644;50.248;19.032;2024-01-10T01:37:31;99760.91;;;-13.09;63.06
40918;BME280;26644;50.248;19.032;2024-01-10T01:40:36;99759.88;;;-13.06;63.29
40918;BME280;26644;50.248;19.032;2024-01-10T01:43:41;99758.16;;;-13.07;63.35
40918;BME280;26644;50.248;19.032;2024-01-10T01:46:50;99759.69;;;-13.03;63.23
40918;BME280;26644;50.248;19.032;2024-01-10T01:49:55;99735.13;;;-13.05;63.13
40918;BME280;26644;50.248;19.032;2024-01-10T01:53:00;99727.31;;;-13.07;62.82
40918;BME280;26644;50.248;19.032;2024-01-10T01:56:06;99720.22;;;-13.21;62.58
40918;BME280;26644;50.248;19.032;2024-01-10T01:59:13;99721.94;;;-13.34;62.66
40918;BME280;26644;50.248;19.032;2024-01-10T02:02:21;99726.88;;;-13.42;63.14
40918;BME280;26644;50.248;19.032;2024-01-10T02:05:28;99718.38;;;-13.48;63.10
40918;BME280;26644;50.248;19.032;2024-01-10T02:08:34;99726.41;;;-13.49;63.28
40918;BME280;26644;50.248;19.032;2024-01-10T02:11:40;99726.13;;;-13.44;63.54
40918;BME280;26644;50.248;19.032;2024-01-10T02:14:45;99733.78;;;-13.40;63.28
40918;BME280;26644;50.248;19.032;2024-01-10T02:17:53;99734.81;;;-13.42;63.47
40918;BME280;26644;50.248;19.032;2024-01-10T02:20:57;99737.25;;;-13.39;63.44
40918;BME280;26644;50.248;19.032;2024-01-10T02:24:03;99738.75;;;-13.35;63.68
40918;BME280;26644;50.248;19.032;2024-01-10T02:27:11;99737.00;;;-13.35;63.38
40918;BME280;26644;50.248;19.032;2024-01-10T02:30:16;99737.00;;;-13.35;63.82
40918;BME280;26644;50.248;19.032;2024-01-10T02:33:21;99727.91;;;-13.31;63.67
40918;BME280;26644;50.248;19.032;2024-01-10T02:36:26;99717.63;;;-13.35;64.10
40918;BME280;26644;50.248;19.032;2024-01-10T02:39:30;99721.50;;;-13.41;63.98
40918;BME280;26644;50.248;19.032;2024-01-10T02:42:39;99717.25;;;-13.43;64.24
40918;BME280;26644;50.248;19.032;2024-01-10T02:45:43;99699.69;;;-13.44;64.58
40918;BME280;26644;50.248;19.032;2024-01-10T02:48:49;99700.56;;;-13.44;64.20
40918;BME280;26644;50.248;19.032;2024-01-10T02:51:53;99703.22;;;-13.44;64.36
40918;BME280;26644;50.248;19.032;2024-01-10T02:54:58;99695.66;;;-13.50;63.96
40918;BME280;26644;50.248;19.032;2024-01-10T02:58:06;99704.81;;;-13.56;64.41
40918;BME280;26644;50.248;19.032;2024-01-10T03:01:11;99700.66;;;-13.60;64.58
40918;BME280;26644;50.248;19.032;2024-01-10T03:04:18;99697.16;;;-13.60;64.72
40918;BME280;26644;50.248;19.032;2024-01-10T03:07:23;99707.63;;;-13.59;64.69
40918;BME280;26644;50.248;19.032;2024-01-10T03:10:28;99702.91;;;-13.54;64.75
40918;BME280;26644;50.248;19.032;2024-01-10T03:13:36;99703.47;;;-13.49;64.74
40918;BME280;26644;50.248;19.032;2024-01-10T03:16:40;99695.81;;;-13.39;64.68
40918;BME280;26644;50.248;19.032;2024-01-10T03:19:46;99692.88;;;-13.34;64.36
40918;BME280;26644;50.248;19.032;2024-01-10T03:22:50;99692.78;;;-13.33;64.24
40918;BME280;26644;50.248;19.032;2024-01-10T03:25:56;99689.91;;;-13.30;64.04
40918;BME280;26644;50.248;19.032;2024-01-10T03:29:03;99679.91;;;-13.24;64.14
40918;BME280;26644;50.248;19.032;2024-01-10T03:32:09;99688.72;;;-13.24;64.18
40918;BME280;26644;50.248;19.032;2024-01-10T03:35:13;99688.81;;;-13.25;63.97
40918;BME280;26644;50.248;19.032;2024-01-10T03:38:19;99684.56;;;-13.28;63.99
40918;BME280;26644;50.248;19.032;2024-01-10T03:41:23;99676.91;;;-13.33;63.69
40918;BME280;26644;50.248;19.032;2024-01-10T03:44:31;99682.00;;;-13.30;63.91
40918;BME280;26644;50.248;19.032;2024-01-10T03:47:35;99683.78;;;-13.30;63.99
40918;BME280;26644;50.248;19.032;2024-01-10T03:50:41;99684.63;;;-13.30;63.60
40918;BME280;26644;50.248;19.032;2024-01-10T03:53:45;99671.84;;;-13.36;63.84
40918;BME280;26644;50.248;19.032;2024-01-10T03:56:51;99669.50;;;-13.40;63.84
40918;BME280;26644;50.248;19.032;2024-01-10T03:59:58;99665.53;;;-13.48;64.12
40918;BME280;26644;50.248;19.032;2024-01-10T04:03:04;99667.16;;;-13.45;63.75
40918;BME280;26644;50.248;19.032;2024-01-10T04:06:11;99659.38;;;-13.48;64.05
40918;BME280;26644;50.248;19.032;2024-01-10T04:09:17;99661.28;;;-13.50;63.94
40918;BME280;26644;50.248;19.032;2024-01-10T04:12:21;99669.13;;;-13.49;64.14
40918;BME280;26644;50.248;19.032;2024-01-10T04:15:29;99672.59;;;-13.48;64.20
40918;BME280;26644;50.248;19.032;2024-01-10T04:18:33;99673.09;;;-13.41;63.68
40918;BME280;26644;50.248;19.032;2024-01-10T04:21:39;99677.25;;;-13.37;63.90
40918;BME280;26644;50.248;19.032;2024-01-10T04:24:43;99680.50;;;-13.34;63.66
40918;BME280;26644;50.248;19.032;2024-01-10T04:27:48;99691.28;;;-13.37;63.22
40918;BME280;26644;50.248;19.032;2024-01-10T04:30:56;99682.59;;;-13.39;63.56
40918;BME280;26644;50.248;19.032;2024-01-10T04:34:01;99675.13;;;-13.32;63.82
40918;BME280;26644;50.248;19.032;2024-01-10T04:37:06;99683.69;;;-13.28;63.08
40918;BME280;26644;50.248;19.032;2024-01-10T04:40:11;99680.22;;;-13.29;63.40
40918;BME280;26644;50.248;19.032;2024-01-10T04:43:16;99668.78;;;-13.30;63.73
40918;BME280;26644;50.248;19.032;2024-01-10T04:46:24;99667.94;;;-13.30;63.14
40918;BME280;26644;50.248;19.032;2024-01-10T04:49:28;99671.41;;;-13.30;63.35
40918;BME280;26644;50.248;19.032;2024-01-10T04:52:34;99670.06;;;-13.35;63.15
40918;BME280;26644;50.248;19.032;2024-01-10T04:55:38;99674.78;;;-13.40;63.43
40918;BME280;26644;50.248;19.032;2024-01-10T04:58:43;99674.97;;;-13.43;63.46
40918;BME280;26644;50.248;19.032;2024-01-10T05:01:51;99680.06;;;-13.40;63.63
40918;BME280;26644;50.248;19.032;2024-01-10T05:04:56;99675.44;;;-13.37;63.50
40918;BME280;26644;50.248;19.032;2024-01-10T05:08:00;99677.25;;;-13.37;63.35
40918;BME280;26644;50.248;19.032;2024-01-10T05:11:06;99672.03;;;-13.39;63.28
40918;BME280;26644;50.248;19.032;2024-01-10T05:14:10;99662.53;;;-13.41;63.17
40918;BME280;26644;50.248;19.032;2024-01-10T05:17:18;99665.53;;;-13.48;63.17
40918;BME280;26644;50.248;19.032;2024-01-10T05:20:23;99671.88;;;-13.50;63.20
40918;BME280;26644;50.248;19.032;2024-01-10T05:23:28;99671.88;;;-13.50;63.77
40918;BME280;26644;50.248;19.032;2024-01-10T05:26:33;99668.38;;;-13.51;63.15
40918;BME280;26644;50.248;19.032;2024-01-10T05:29:39;99664.69;;;-13.48;63.17
40918;BME280;26644;50.248;19.032;2024-01-10T05:32:46;99665.25;;;-13.43;63.32
40918;BME280;26644;50.248;19.032;2024-01-10T05:35:51;99655.53;;;-13.42;63.38
40918;BME280;26644;50.248;19.032;2024-01-10T05:38:56;99659.69;;;-13.38;62.92
40918;BME280;26644;50.248;19.032;2024-01-10T05:42:01;99660.72;;;-13.41;62.63
40918;BME280;26644;50.248;19.032;2024-01-10T05:45:07;99664.50;;;-13.45;62.05
40918;BME280;26644;50.248;19.032;2024-01-10T05:48:15;99658.75;;;-13.52;62.74
40918;BME280;26644;50.248;19.032;2024-01-10T05:51:20;99671.19;;;-13.54;62.67
40918;BME280;26644;50.248;19.032;2024-01-10T05:54:25;99674.25;;;-13.60;62.89
40918;BME280;26644;50.248;19.032;2024-01-10T05:57:32;99671.97;;;-13.66;62.92
40918;BME280;26644;50.248;19.032;2024-01-10T06:00:38;99678.97;;;-13.65;63.57
40918;BME280;26644;50.248;19.032;2024-01-10T06:03:45;99679.13;;;-13.68;63.58
40918;BME280;26644;50.248;19.032;2024-01-10T06:06:50;99676.47;;;-13.68;63.43
40918;BME280;26644;50.248;19.032;2024-01-10T06:09:55;99684.13;;;-13.63;63.88
40918;BME280;26644;50.248;19.032;2024-01-10T06:13:00;99691.03;;;-13.61;63.21
40918;BME280;26644;50.248;19.032;2024-01-10T06:16:06;99693.66;;;-13.61;63.38
40918;BME280;26644;50.248;19.032;2024-01-10T06:19:14;99690.25;;;-13.63;63.31
40918;BME280;26644;50.248;19.032;2024-01-10T06:22:19;99690.25;;;-13.63;63.68
40918;BME280;26644;50.248;19.032;2024-01-10T06:25:27;99695.94;;;-13.69;64.11
40918;BME280;26644;50.248;19.032;2024-01-10T06:28:32;99691.59;;;-13.70;64.07
40918;BME280;26644;50.248;19.032;2024-01-10T06:31:37;99699.22;;;-13.66;64.72
40918;BME280;26644;50.248;19.032;2024-01-10T06:34:44;99698.19;;;-13.63;64.29
40918;BME280;26644;50.248;19.032;2024-01-10T06:37:49;99696.47;;;-13.64;64.33
40918;BME280;26644;50.248;19.032;2024-01-10T06:40:54;99705.16;;;-13.62;64.50
40918;BME280;26644;50.248;19.032;2024-01-10T06:43:59;99698.84;;;-13.59;64.22
40918;BME280;26644;50.248;19.032;2024-01-10T06:47:05;99687.25;;;-13.57;64.83
40918;BME280;26644;50.248;19.032;2024-01-10T06:50:14;99690.38;;;-13.50;64.69
40918;BME280;26644;50.248;19.032;2024-01-10T06:53:21;99690.53;;;-13.39;64.61
40918;BME280;26644;50.248;19.032;2024-01-10T06:56:26;99689.91;;;-13.30;64.57
40918;BME280;26644;50.248;19.032;2024-01-10T06:59:31;99692.09;;;-13.22;64.00
40918;BME280;26644;50.248;19.032;2024-01-10T07:02:36;99690.78;;;-13.15;64.31
40918;BME280;26644;50.248;19.032;2024-01-10T07:05:43;99685.00;;;-13.07;63.76
40918;BME280;26644;50.248;19.032;2024-01-10T07:08:50;99682.25;;;-13.05;63.37
40918;BME280;26644;50.248;19.032;2024-01-10T07:11:54;99685.47;;;-13.00;63.06
40918;BME280;26644;50.248;19.032;2024-01-10T07:15:00;99687.69;;;-12.94;62.82
40918;BME280;26644;50.248;19.032;2024-01-10T07:18:06;99682.28;;;-12.92;62.50
40918;BME280;26644;50.248;19.032;2024-01-10T07:21:14;99684.78;;;-12.89;62.57
40918;BME280;26644;50.248;19.032;2024-01-10T07:24:18;99673.78;;;-12.83;62.29
40918;BME280;26644;50.248;19.032;2024-01-10T07:27:24;99676.25;;;-12.80;62.15
40918;BME280;26644;50.248;19.032;2024-01-10T07:30:28;99680.59;;;-12.79;62.44
40918;BME280;26644;50.248;19.032;2024-01-10T07:33:35;99672.13;;;-12.71;61.89
40918;BME280;26644;50.248;19.032;2024-01-10T07:36:45;99676.59;;;-12.72;62.03
40918;BME280;26644;50.248;19.032;2024-01-10T07:39:50;99673.84;;;-12.70;61.83
40918;BME280;26644;50.248;19.032;2024-01-10T07:42:55;99673.00;;;-12.71;61.80
40918;BME280;26644;50.248;19.032;2024-01-10T07:46:01;99674.69;;;-12.70;62.04
40918;BME280;26644;50.248;19.032;2024-01-10T07:49:05;99665.28;;;-12.61;62.17
40918;BME280;26644;50.248;19.032;2024-01-10T07:52:13;99660.66;;;-12.57;62.46
40918;BME280;26644;50.248;19.032;2024-01-10T07:55:18;99653.44;;;-12.55;62.40
40918;BME280;26644;50.248;19.032;2024-01-10T07:58:23;99675.41;;;-12.40;63.28
40918;BME280;26644;50.248;19.032;2024-01-10T08:01:28;99670.69;;;-12.22;63.15
40918;BME280;26644;50.248;19.032;2024-01-10T08:04:33;99669.94;;;-12.11;63.05
40918;BME280;26644;50.248;19.032;2024-01-10T08:07:40;99666.38;;;-11.98;63.22
40918;BME280;26644;50.248;19.032;2024-01-10T08:10:46;99670.72;;;-11.84;63.27
40918;BME280;26644;50.248;19.032;2024-01-10T08:13:50;99670.28;;;-11.77;63.29
40918;BME280;26644;50.248;19.032;2024-01-10T08:16:56;99677.16;;;-11.62;63.78
40918;BME280;26644;50.248;19.032;2024-01-10T08:20:01;99674.69;;;-11.39;63.54
40918;BME280;26644;50.248;19.032;2024-01-10T08:23:10;99675.78;;;-11.05;62.80
40918;BME280;26644;50.248;19.032;2024-01-10T08:26:15;99672.72;;;-10.50;61.50
40918;BME280;26644;50.248;19.032;2024-01-10T08:29:22;99680.31;;;-9.52;62.01
40918;BME280;26644;50.248;19.032;2024-01-10T08:32:31;99678.19;;;-7.83;60.44
40918;BME280;26644;50.248;19.032;2024-01-10T08:35:37;99692.34;;;-6.00;56.16
40918;BME280;26644;50.248;19.032;2024-01-10T08:38:46;99688.81;;;-4.22;52.44
40918;BME280;26644;50.248;19.032;2024-01-10T08:41:51;99694.78;;;-2.44;48.21
40918;BME280;26644;50.248;19.032;2024-01-10T08:44:56;99709.44;;;-1.07;44.40
40918;BME280;26644;50.248;19.032;2024-01-10T08:48:02;99708.44;;;0.20;42.45
40918;BME280;26644;50.248;19.032;2024-01-10T08:51:07;99718.47;;;1.63;40.70
40918;BME280;26644;50.248;19.032;2024-01-10T08:54:16;99714.34;;;2.97;38.51
40918;BME280;26644;50.248;19.032;2024-01-10T08:57:21;99715.25;;;4.14;36.33
40918;BME280;26644;50.248;19.032;2024-01-10T09:00:28;99724.13;;;5.17;34.65
40918;BME280;26644;50.248;19.032;2024-01-10T09:03:32;99718.19;;;5.92;32.95
40918;BME280;26644;50.248;19.032;2024-01-10T09:06:39;99729.75;;;6.58;31.03
40918;BME280;26644;50.248;19.032;2024-01-10T09:09:46;99727.13;;;6.95;30.42
40918;BME280;26644;50.248;19.032;2024-01-10T09:12:52;99728.00;;;7.39;29.67
40918;BME280;26644;50.248;19.032;2024-01-10T09:15:56;99722.84;;;7.99;29.00
40918;BME280;26644;50.248;19.032;2024-01-10T09:19:01;99719.59;;;8.51;28.55
40918;BME280;26644;50.248;19.032;2024-01-10T09:22:06;99721.72;;;9.15;27.87
40918;BME280;26644;50.248;19.032;2024-01-10T09:25:14;99720.50;;;9.46;26.72
40918;BME280;26644;50.248;19.032;2024-01-10T09:28:18;99722.84;;;9.78;26.30
40918;BME280;26644;50.248;19.032;2024-01-10T09:31:24;99719.47;;;9.88;26.33
40918;BME280;26644;50.248;19.032;2024-01-10T09:34:29;99718.97;;;10.20;26.03
40918;BME280;26644;50.248;19.032;2024-01-10T09:37:35;99724.31;;;10.55;25.31
40918;BME280;26644;50.248;19.032;2024-01-10T09:40:42;99726.94;;;10.79;25.29
40918;BME280;26644;50.248;19.032;2024-01-10T09:43:47;99724.19;;;10.79;24.59
40918;BME280;26644;50.248;19.032;2024-01-10T09:46:54;99719.28;;;10.35;24.44
40918;BME280;26644;50.248;19.032;2024-01-10T09:50:00;99716.19;;;8.79;25.22
40918;BME280;26644;50.248;19.032;2024-01-10T09:53:06;99701.38;;;7.09;26.69
40918;BME280;26644;50.248;19.032;2024-01-10T09:56:15;99686.78;;;5.31;27.95
40918;BME280;26644;50.248;19.032;2024-01-10T09:59:19;99679.53;;;3.49;30.36
40918;BME280;26644;50.248;19.032;2024-01-10T10:02:25;99676.34;;;1.97;32.14
40918;BME280;26644;50.248;19.032;2024-01-10T10:05:30;99669.97;;;0.56;33.97
40918;BME280;26644;50.248;19.032;2024-01-10T10:08:37;99666.75;;;-0.55;36.18
40918;BME280;26644;50.248;19.032;2024-01-10T10:11:53;99661.84;;;-1.55;37.79
40918;BME280;26644;50.248;19.032;2024-01-10T10:15:10;99658.97;;;-2.36;39.79
40918;BME280;26644;50.248;19.032;2024-01-10T10:18:16;99645.53;;;-2.96;41.70
40918;BME280;26644;50.248;19.032;2024-01-10T10:21:22;99651.31;;;-3.43;43.15
40918;BME280;26644;50.248;19.032;2024-01-10T10:24:29;99641.91;;;-3.73;44.08
40918;BME280;26644;50.248;19.032;2024-01-10T10:27:38;99637.38;;;-3.99;45.72
40918;BME280;26644;50.248;19.032;2024-01-10T10:30:46;99631.19;;;-4.18;46.75
40918;BME280;26644;50.248;19.032;2024-01-10T10:33:52;99642.84;;;-4.27;47.16
40918;BME280;26644;50.248;19.032;2024-01-10T10:36:56;99629.75;;;-4.30;48.03
40918;BME280;26644;50.248;19.032;2024-01-10T10:40:02;99634.16;;;-4.39;48.76
40918;BME280;26644;50.248;19.032;2024-01-10T10:43:13;99636.69;;;-4.37;49.04
40918;BME280;26644;50.248;19.032;2024-01-10T10:46:23;99624.97;;;-4.36;49.65
40918;BME280;26644;50.248;19.032;2024-01-10T10:49:33;99631.16;;;-4.36;50.19
40918;BME280;26644;50.248;19.032;2024-01-10T10:52:42;99630.88;;;-4.33;50.77
40918;BME280;26644;50.248;19.032;2024-01-10T10:55:51;99624.44;;;-4.22;51.17
40918;BME280;26644;50.248;19.032;2024-01-10T10:59:03;99622.81;;;-4.15;51.16
40918;BME280;26644;50.248;19.032;2024-01-10T11:02:09;99623.34;;;-4.11;51.02
40918;BME280;26644;50.248;19.032;2024-01-10T11:05:15;99619.19;;;-4.05;51.34
40918;BME280;26644;50.248;19.032;2024-01-10T11:08:23;99609.53;;;-3.98;51.16
40918;BME280;26644;50.248;19.032;2024-01-10T11:11:43;99619.50;;;-3.90;51.65
40918;BME280;26644;50.248;19.032;2024-01-10T11:15:19;99607.81;;;-3.81;51.28
40918;BME280;26644;50.248;19.032;2024-01-10T11:18:56;99615.75;;;-3.71;50.98
40918;BME280;26644;50.248;19.032;2024-01-10T11:22:36;99614.81;;;-3.62;51.13
40918;BME280;26644;50.248;19.032;2024-01-10T11:25:54;99600.28;;;-3.51;51.05
40918;BME280;26644;50.248;19.032;2024-01-10T11:29:00;99610.75;;;-3.40;50.52
40918;BME280;26644;50.248;19.032;2024-01-10T11:32:13;99604.56;;;-3.32;50.62
40918;BME280;26644;50.248;19.032;2024-01-10T11:35:19;99612.16;;;-3.19;50.79
40918;BME280;26644;50.248;19.032;2024-01-10T11:38:27;99606.81;;;-3.11;50.50
40918;BME280;26644;50.248;19.032;2024-01-10T11:41:33;99604.84;;;-3.01;50.15
40918;BME280;26644;50.248;19.032;2024-01-10T11:44:50;99610.78;;;-2.89;50.01
40918;BME280;26644;50.248;19.032;2024-01-10T11:47:58;99606.44;;;-2.82;49.46
40918;BME280;26644;50.248;19.032;2024-01-10T11:51:04;99606.63;;;-2.75;49.53
40918;BME280;26644;50.248;19.032;2024-01-10T11:54:09;99604.13;;;-2.68;49.66
40918;BME280;26644;50.248;19.032;2024-01-10T11:57:19;99597.72;;;-2.67;49.44
40918;BME280;26644;50.248;19.032;2024-01-10T12:00:26;99603.31;;;-2.61;49.30
40918;BME280;26644;50.248;19.032;2024-01-10T12:03:36;99596.72;;;-2.58;49.39
40918;BME280;26644;50.248;19.032;2024-01-10T12:06:41;99606.31;;;-2.55;49.34
40918;BME280;26644;50.248;19.032;2024-01-10T12:09:47;99598.25;;;-2.55;49.08
40918;BME280;26644;50.248;19.032;2024-01-10T12:12:52;99590.34;;;-2.57;49.21
40918;BME280;26644;50.248;19.032;2024-01-10T12:15:59;99582.63;;;-2.52;49.14
40918;BME280;26644;50.248;19.032;2024-01-10T12:19:06;99576.25;;;-2.51;48.76
40918;BME280;26644;50.248;19.032;2024-01-10T12:22:11;99582.13;;;-2.47;49.12
40918;BME280;26644;50.248;19.032;2024-01-10T12:25:16;99585.50;;;-2.45;48.85
40918;BME280;26644;50.248;19.032;2024-01-10T12:28:21;99590.22;;;-2.47;48.75
40918;BME280;26644;50.248;19.032;2024-01-10T12:31:27;99587.53;;;-2.47;48.93
40918;BME280;26644;50.248;19.032;2024-01-10T12:34:37;99586.19;;;-2.43;49.02
40918;BME280;26644;50.248;19.032;2024-01-10T12:37:53;99578.59;;;-2.39;48.89
40918;BME280;26644;50.248;19.032;2024-01-10T12:40:59;99582.31;;;-2.41;49.04
40918;BME280;26644;50.248;19.032;2024-01-10T12:44:04;99573.38;;;-2.41;49.24
40918;BME280;26644;50.248;19.032;2024-01-10T12:47:18;99574.41;;;-2.42;48.79
40918;BME280;26644;50.248;19.032;2024-01-10T12:50:26;99569.19;;;-2.44;49.29
40918;BME280;26644;50.248;19.032;2024-01-10T12:53:33;99565.50;;;-2.43;48.96
40918;BME280;26644;50.248;19.032;2024-01-10T12:56:38;99556.94;;;-2.38;49.21
40918;BME280;26644;50.248;19.032;2024-01-10T12:59:44;99550.84;;;-2.32;49.46
40918;BME280;26644;50.248;19.032;2024-01-10T13:02:48;99547.69;;;-2.27;49.13
40918;BME280;26644;50.248;19.032;2024-01-10T13:05:56;99544.63;;;-2.24;49.42
40918;BME280;26644;50.248;19.032;2024-01-10T13:09:02;99537.72;;;-2.18;49.29
40918;BME280;26644;50.248;19.032;2024-01-10T13:12:08;99538.06;;;-2.13;49.27
40918;BME280;26644;50.248;19.032;2024-01-10T13:15:13;99540.25;;;-2.09;49.40
40918;BME280;26644;50.248;19.032;2024-01-10T13:18:18;99539.56;;;-2.02;49.06
40918;BME280;26644;50.248;19.032;2024-01-10T13:21:26;99527.94;;;-1.95;49.34
40918;BME280;26644;50.248;19.032;2024-01-10T13:24:31;99524.75;;;-1.90;48.43
40918;BME280;26644;50.248;19.032;2024-01-10T13:27:35;99529.78;;;-1.87;48.40
40918;BME280;26644;50.248;19.032;2024-01-10T13:30:41;99527.59;;;-1.83;48.65
40918;BME280;26644;50.248;19.032;2024-01-10T13:33:45;99523.53;;;-1.79;48.25
40918;BME280;26644;50.248;19.032;2024-01-10T13:36:54;99522.00;;;-1.74;48.72
40918;BME280;26644;50.248;19.032;2024-01-10T13:39:59;99525.72;;;-1.66;48.86
40918;BME280;26644;50.248;19.032;2024-01-10T13:43:07;99526.34;;;-1.64;48.73
40918;BME280;26644;50.248;19.032;2024-01-10T13:46:11;99533.06;;;-1.60;47.94
40918;BME280;26644;50.248;19.032;2024-01-10T13:49:17;99526.19;;;-1.54;48.10
40918;BME280;26644;50.248;19.032;2024-01-10T13:52:24;99531.72;;;-1.56;47.44
40918;BME280;26644;50.248;19.032;2024-01-10T13:55:29;99532.03;;;-1.51;47.19
40918;BME280;26644;50.248;19.032;2024-01-10T13:58:36;99524.81;;;-1.50;46.90
40918;BME280;26644;50.248;19.032;2024-01-10T14:01:41;99530.84;;;-1.48;47.05
40918;BME280;26644;50.248;19.032;2024-01-10T14:04:45;99529.53;;;-1.52;47.50
40918;BME280;26644;50.248;19.032;2024-01-10T14:07:53;99530.06;;;-1.57;48.31
40918;BME280;26644;50.248;19.032;2024-01-10T14:10:58;99529.22;;;-1.66;48.62
40918;BME280;26644;50.248;19.032;2024-01-10T14:14:03;99512.94;;;-1.72;48.69
40918;BME280;26644;50.248;19.032;2024-01-10T14:17:08;99519.81;;;-1.70;48.75
40918;BME280;26644;50.248;19.032;2024-01-10T14:20:14;99521.69;;;-1.79;48.82
40918;BME280;26644;50.248;19.032;2024-01-10T14:23:21;99528.97;;;-1.87;49.20
40918;BME280;26644;50.248;19.032;2024-01-10T14:26:26;99524.59;;;-1.97;49.09
40918;BME280;26644;50.248;19.032;2024-01-10T14:29:31;99519.06;;;-2.12;49.44
40918;BME280;26644;50.248;19.032;2024-01-10T14:32:36;99522.44;;;-2.18;49.70
40918;BME280;26644;50.248;19.032;2024-01-10T14:35:41;99519.41;;;-2.23;49.86
40918;BME280;26644;50.248;19.032;2024-01-10T14:38:49;99518.91;;;-2.10;49.96
40918;BME280;26644;50.248;19.032;2024-01-10T14:41:54;99528.34;;;-2.14;49.83
40918;BME280;26644;50.248;19.032;2024-01-10T14:45:00;99529.34;;;-2.23;50.23
40918;BME280;26644;50.248;19.032;2024-01-10T14:48:05;99527.50;;;-2.31;50.59
40918;BME280;26644;50.248;19.032;2024-01-10T14:51:10;99513.03;;;-2.47;50.59
40918;BME280;26644;50.248;19.032;2024-01-10T14:54:18;99520.44;;;-2.57;51.15
40918;BME280;26644;50.248;19.032;2024-01-10T14:57:24;99513.72;;;-2.69;51.41
40918;BME280;26644;50.248;19.032;2024-01-10T15:00:29;99508.66;;;-2.81;51.20
40918;BME280;26644;50.248;19.032;2024-01-10T15:03:34;99509.81;;;-2.92;51.92
40918;BME280;26644;50.248;19.032;2024-01-10T15:06:43;99514.34;;;-3.00;51.94
40918;BME280;26644;50.248;19.032;2024-01-10T15:09:51;99505.41;;;-3.09;52.80
40918;BME280;26644;50.248;19.032;2024-01-10T15:12:56;99507.22;;;-3.18;52.98
40918;BME280;26644;50.248;19.032;2024-01-10T15:16:02;99506.91;;;-3.23;52.82
40918;BME280;26644;50.248;19.032;2024-01-10T15:19:07;99507.22;;;-3.26;53.22
40918;BME280;26644;50.248;19.032;2024-01-10T15:22:13;99507.03;;;-3.33;53.61
40918;BME280;26644;50.248;19.032;2024-01-10T15:25:21;99493.41;;;-3.39;54.07
40918;BME280;26644;50.248;19.032;2024-01-10T15:28:28;99488.38;;;-3.43;54.47
40918;BME280;26644;50.248;19.032;2024-01-10T15:31:32;99489.03;;;-3.49;54.58
40918;BME280;26644;50.248;19.032;2024-01-10T15:34:39;99484.28;;;-3.55;55.14
40918;BME280;26644;50.248;19.032;2024-01-10T15:37:45;99483.09;;;-3.61;55.40
40918;BME280;26644;50.248;19.032;2024-01-10T15:40:53;99485.59;;;-3.67;56.15
40918;BME280;26644;50.248;19.032;2024-01-10T15:43:58;99492.97;;;-3.69;56.40
40918;BME280;26644;50.248;19.032;2024-01-10T15:47:04;99493.13;;;-3.71;56.15
40918;BME280;26644;50.248;19.032;2024-01-10T15:50:08;99483.34;;;-3.80;56.74
40918;BME280;26644;50.248;19.032;2024-01-10T15:53:14;99480.34;;;-3.77;56.30
40918;BME280;26644;50.248;19.032;2024-01-10T15:56:23;99487.06;;;-3.81;56.50
40918;BME280;26644;50.248;19.032;2024-01-10T15:59:29;99481.50;;;-3.88;56.56
40918;BME280;26644;50.248;19.032;2024-01-10T16:02:33;99489.00;;;-3.92;56.50
40918;BME280;26644;50.248;19.032;2024-01-10T16:05:38;99485.25;;;-3.99;56.91
40918;BME280;26644;50.248;19.032;2024-01-10T16:08:43;99482.25;;;-4.04;57.07